createdAt,value
2017-08-25T00:00:00.808Z,14.57
2017-08-25T00:02:27.320Z,14.03
2017-08-25T00:04:53.811Z,14.00
2017-08-25T00:07:20.245Z,15.03
2017-08-25T00:09:46.707Z,14.40
2017-08-25T00:12:13.177Z,14.67
2017-08-25T00:14:39.719Z,14.50
2017-08-25T00:17:06.169Z,15.30
2017-08-25T00:19:32.624Z,15.87
2017-08-25T00:21:59.077Z,15.40
2017-08-25T00:24:25.538Z,16.40
2017-08-25T00:26:51.966Z,16.93
2017-08-25T00:29:18.438Z,14.40
2017-08-25T00:31:44.925Z,14.03
2017-08-25T00:34:11.407Z,12.57
2017-08-25T00:36:37.880Z,11.87
2017-08-25T00:39:04.353Z,10.43
2017-08-25T00:41:30.790Z,9.07
2017-08-25T00:43:57.275Z,7.73
2017-08-25T00:46:23.930Z,7.70
2017-08-25T00:48:50.376Z,6.60
2017-08-25T00:51:16.919Z,6.63
2017-08-25T00:53:43.413Z,6.20
2017-08-25T00:56:09.881Z,6.10
2017-08-25T00:58:36.422Z,5.00
2017-08-25T01:01:02.880Z,5.37
2017-08-25T01:03:29.340Z,5.17
2017-08-25T01:05:56.223Z,5.27
2017-08-25T01:08:22.750Z,4.70
2017-08-25T01:10:49.224Z,4.90
2017-08-25T01:13:15.722Z,4.40
2017-08-25T01:15:42.159Z,4.77
2017-08-25T01:18:08.711Z,4.70
2017-08-25T01:20:35.213Z,4.50
2017-08-25T01:23:01.696Z,4.80
2017-08-25T01:25:28.189Z,5.13
2017-08-25T01:27:54.679Z,5.40
2017-08-25T01:30:21.185Z,4.50
2017-08-25T01:32:47.709Z,5.03
2017-08-25T01:35:14.263Z,4.57
2017-08-25T01:37:40.783Z,4.83
2017-08-25T01:40:07.725Z,5.53
2017-08-25T01:42:34.247Z,4.90
2017-08-25T01:45:00.736Z,4.83
2017-08-25T01:47:27.225Z,4.73
2017-08-25T01:49:53.688Z,4.27
2017-08-25T01:52:20.199Z,4.80
2017-08-25T01:54:46.703Z,4.87
2017-08-25T01:57:13.182Z,4.30
2017-08-25T01:59:39.662Z,4.67
2017-08-25T02:02:06.142Z,4.97
2017-08-25T02:04:32.673Z,4.60
2017-08-25T02:06:59.170Z,5.40
2017-08-25T02:09:25.663Z,5.17
2017-08-25T02:11:52.186Z,5.87
2017-08-25T02:14:18.709Z,5.20
2017-08-25T02:16:45.199Z,5.10
2017-08-25T02:19:11.745Z,4.50
2017-08-25T02:21:44.286Z,4.20
2017-08-25T02:24:10.787Z,4.03
2017-08-25T02:26:37.284Z,4.10
2017-08-25T02:29:03.779Z,4.80
2017-08-25T02:31:30.230Z,4.40
2017-08-25T02:33:56.683Z,4.70
2017-08-25T02:36:23.157Z,5.20
2017-08-25T02:38:49.603Z,4.00
2017-08-25T02:41:16.038Z,4.57
2017-08-25T02:43:42.527Z,5.37
2017-08-25T02:46:08.971Z,4.50
2017-08-25T02:48:35.430Z,4.93
2017-08-25T02:51:01.897Z,4.37
2017-08-25T02:53:28.336Z,4.50
2017-08-25T02:55:54.792Z,4.80
2017-08-25T02:58:21.667Z,4.80
2017-08-25T03:00:48.130Z,5.90
2017-08-25T03:03:14.566Z,5.20
2017-08-25T03:05:41.029Z,5.00
2017-08-25T03:08:07.487Z,4.80
2017-08-25T03:10:33.915Z,4.97
2017-08-25T03:13:00.370Z,6.70
2017-08-25T03:15:26.829Z,6.93
2017-08-25T03:17:53.296Z,5.90
2017-08-25T03:20:19.956Z,6.00
2017-08-25T03:22:46.419Z,5.57
2017-08-25T03:25:12.886Z,5.33
2017-08-25T03:27:39.334Z,5.70
2017-08-25T03:30:05.828Z,6.20
2017-08-25T03:32:32.269Z,6.00
2017-08-25T03:34:58.716Z,4.87
2017-08-25T03:37:25.186Z,5.40
2017-08-25T03:39:51.624Z,6.40
2017-08-25T03:42:18.059Z,5.23
2017-08-25T03:44:45.277Z,6.10
2017-08-25T03:47:11.731Z,7.27
2017-08-25T03:49:38.179Z,5.73
2017-08-25T03:52:05.368Z,5.73
2017-08-25T03:54:31.851Z,7.13
2017-08-25T03:56:58.308Z,6.97
2017-08-25T03:59:24.755Z,5.97
2017-08-25T04:01:51.222Z,5.80
2017-08-25T04:04:17.684Z,6.70
2017-08-25T04:06:44.119Z,6.03
2017-08-25T04:09:10.585Z,5.60
2017-08-25T04:11:37.031Z,6.40
2017-08-25T04:14:03.467Z,5.20
2017-08-25T04:16:29.922Z,6.20
2017-08-25T04:18:56.373Z,6.97
2017-08-25T04:21:22.856Z,6.53
2017-08-25T04:23:49.370Z,5.40
2017-08-25T04:26:15.847Z,5.50
2017-08-25T04:28:42.534Z,5.57
2017-08-25T04:31:09.024Z,5.70
2017-08-25T04:33:35.477Z,4.40
2017-08-25T04:36:01.975Z,4.57
2017-08-25T04:38:28.460Z,4.50
2017-08-25T04:40:54.921Z,4.80
2017-08-25T04:43:21.395Z,5.27
2017-08-25T04:45:47.887Z,4.60
2017-08-25T04:48:14.385Z,4.70
2017-08-25T04:50:40.838Z,4.03
2017-08-25T04:53:07.309Z,5.47
2017-08-25T04:55:33.788Z,4.60
2017-08-25T04:58:00.232Z,4.70
2017-08-25T05:00:26.692Z,6.43
2017-08-25T05:02:53.187Z,5.27
2017-08-25T05:05:19.623Z,5.90
2017-08-25T05:07:46.092Z,5.20
2017-08-25T05:10:12.570Z,4.93
2017-08-25T05:12:39.624Z,4.50
2017-08-25T05:15:06.075Z,3.97
2017-08-25T05:17:32.550Z,4.70
2017-08-25T05:19:59.003Z,5.00
2017-08-25T05:22:25.460Z,4.80
2017-08-25T05:24:51.956Z,4.63
2017-08-25T05:27:18.421Z,4.67
2017-08-25T05:29:44.954Z,4.43
2017-08-25T05:32:11.460Z,4.67
2017-08-25T05:34:37.920Z,5.60
2017-08-25T05:37:04.392Z,5.03
2017-08-25T05:39:30.848Z,5.00
2017-08-25T05:41:57.295Z,4.90
2017-08-25T05:44:23.801Z,4.77
2017-08-25T05:46:50.980Z,5.50
2017-08-25T05:49:17.505Z,5.37
2017-08-25T05:51:44.004Z,5.57
2017-08-25T05:54:10.452Z,5.47
2017-08-25T05:56:37.760Z,4.80
2017-08-25T05:59:04.271Z,3.73
2017-08-25T06:01:30.736Z,5.03
2017-08-25T06:03:57.219Z,4.37
2017-08-25T06:06:23.692Z,4.60
2017-08-25T06:08:50.131Z,4.03
2017-08-25T06:11:16.547Z,4.40
2017-08-25T06:13:42.963Z,3.80
2017-08-25T06:16:09.448Z,4.27
2017-08-25T06:18:35.881Z,3.90
2017-08-25T06:21:02.361Z,3.63
2017-08-25T06:23:28.820Z,3.23
2017-08-25T06:25:55.328Z,3.10
2017-08-25T06:28:21.759Z,2.60
2017-08-25T06:30:48.230Z,2.60
2017-08-25T06:33:14.849Z,2.57
2017-08-25T06:35:41.330Z,2.90
2017-08-25T06:38:07.786Z,1.90
2017-08-25T06:40:34.265Z,2.33
2017-08-25T06:43:00.712Z,2.93
2017-08-25T06:45:27.160Z,2.30
2017-08-25T06:47:53.602Z,2.40
2017-08-25T06:50:20.049Z,2.60
2017-08-25T06:52:46.508Z,2.80
2017-08-25T06:55:12.961Z,2.20
2017-08-25T06:57:39.468Z,2.70
2017-08-25T07:00:05.943Z,2.30
2017-08-25T07:02:32.416Z,3.13
2017-08-25T07:04:58.867Z,3.60
2017-08-25T07:07:25.321Z,2.23
2017-08-25T07:09:51.788Z,2.73
2017-08-25T07:12:18.237Z,2.63
2017-08-25T07:14:44.698Z,2.20
2017-08-25T07:17:11.137Z,3.67
2017-08-25T07:19:37.592Z,2.87
2017-08-25T07:22:04.012Z,2.27
2017-08-25T07:24:30.485Z,2.93
2017-08-25T07:26:56.929Z,3.30
2017-08-25T07:29:23.641Z,2.70
2017-08-25T07:31:50.099Z,2.70
2017-08-25T07:34:16.538Z,3.20
2017-08-25T07:36:43.004Z,2.70
2017-08-25T07:39:10.287Z,3.20
2017-08-25T07:41:36.959Z,2.90
2017-08-25T07:44:03.407Z,3.50
2017-08-25T07:46:29.849Z,3.40
2017-08-25T07:48:56.315Z,3.10
2017-08-25T07:51:22.771Z,3.53
2017-08-25T07:53:49.261Z,3.30
2017-08-25T07:56:15.713Z,3.30
2017-08-25T07:58:42.220Z,3.57
2017-08-25T08:01:08.660Z,3.83
2017-08-25T08:03:35.099Z,3.43
2017-08-25T08:06:01.560Z,4.10
2017-08-25T08:08:28.003Z,3.23
2017-08-25T08:10:54.433Z,3.47
2017-08-25T08:13:20.894Z,3.50
2017-08-25T08:15:47.365Z,3.50
2017-08-25T08:18:13.823Z,3.70
2017-08-25T08:20:40.300Z,4.60
2017-08-25T08:23:06.760Z,3.93
2017-08-25T08:25:33.213Z,3.83
2017-08-25T08:28:00.418Z,4.37
2017-08-25T08:30:26.849Z,3.53
2017-08-25T08:32:53.346Z,3.87
2017-08-25T08:35:19.771Z,3.77
2017-08-25T08:37:46.202Z,3.70
2017-08-25T08:40:12.691Z,3.73
2017-08-25T08:42:39.161Z,3.57
2017-08-25T08:45:06.345Z,3.77
2017-08-25T08:47:32.780Z,4.00
2017-08-25T08:49:59.249Z,3.93
2017-08-25T08:52:25.735Z,4.40
2017-08-25T08:54:52.164Z,3.57
2017-08-25T08:57:18.602Z,4.63
2017-08-25T08:59:45.046Z,3.77
2017-08-25T09:02:11.519Z,4.77
2017-08-25T09:04:37.964Z,4.47
2017-08-25T09:07:04.462Z,4.33
2017-08-25T09:09:30.930Z,3.97
2017-08-25T09:11:57.351Z,3.90
2017-08-25T09:14:23.813Z,4.30
2017-08-25T09:16:50.277Z,4.30
2017-08-25T09:19:16.733Z,4.33
2017-08-25T09:21:43.180Z,4.80
2017-08-25T09:24:09.631Z,4.60
2017-08-25T09:26:36.089Z,4.73
2017-08-25T09:29:02.533Z,4.23
2017-08-25T09:31:29.767Z,4.97
2017-08-25T09:33:56.202Z,4.37
2017-08-25T09:36:22.621Z,3.93
2017-08-25T09:38:49.411Z,4.30
2017-08-25T09:41:15.839Z,4.27
2017-08-25T09:43:42.379Z,4.87
2017-08-25T09:46:08.845Z,4.87
2017-08-25T09:48:35.312Z,4.40
2017-08-25T09:51:01.770Z,4.80
2017-08-25T09:53:28.209Z,4.77
2017-08-25T09:55:54.685Z,4.80
2017-08-25T09:58:21.335Z,3.87
2017-08-25T10:00:47.819Z,4.70
2017-08-25T10:03:14.306Z,4.43
2017-08-25T10:05:40.783Z,4.43
2017-08-25T10:08:07.277Z,4.73
2017-08-25T10:10:33.706Z,4.00
2017-08-25T10:13:00.179Z,5.03
2017-08-25T10:15:26.648Z,4.20
2017-08-25T10:17:53.064Z,4.50
2017-08-25T10:20:19.520Z,4.33
2017-08-25T10:22:45.988Z,4.60
2017-08-25T10:25:12.460Z,4.10
2017-08-25T10:27:38.934Z,3.73
2017-08-25T10:30:05.393Z,4.40
2017-08-25T10:32:31.841Z,4.50
2017-08-25T10:35:25.314Z,5.37
2017-08-25T10:38:03.980Z,4.20
2017-08-25T10:40:53.327Z,4.20
2017-08-25T10:43:32.008Z,4.00
2017-08-25T10:45:58.507Z,5.27
2017-08-25T10:48:24.961Z,3.87
2017-08-25T10:50:52.384Z,4.60
2017-08-25T10:53:18.851Z,5.57
2017-08-25T10:55:52.330Z,5.07
2017-08-25T10:58:18.777Z,4.67
2017-08-25T11:00:45.233Z,4.97
2017-08-25T11:03:11.676Z,4.33
2017-08-25T11:05:38.121Z,4.57
2017-08-25T11:08:04.547Z,5.47
2017-08-25T11:10:31.006Z,3.70
2017-08-25T11:12:57.440Z,4.60
2017-08-25T11:15:23.896Z,4.30
2017-08-25T11:17:50.342Z,3.93
2017-08-25T11:20:16.756Z,4.30
2017-08-25T11:22:43.228Z,3.83
2017-08-25T11:25:09.657Z,4.60
2017-08-25T11:27:36.111Z,4.00
2017-08-25T11:30:03.290Z,4.63
2017-08-25T11:32:29.723Z,4.27
2017-08-25T11:34:56.191Z,4.40
2017-08-25T11:37:22.679Z,4.17
2017-08-25T11:39:49.145Z,4.10
2017-08-25T11:42:15.653Z,5.43
2017-08-25T11:44:42.129Z,4.70
2017-08-25T11:47:08.568Z,3.87
2017-08-25T11:49:49.934Z,4.50
2017-08-25T11:52:16.399Z,3.97
2017-08-25T11:54:42.830Z,4.77
2017-08-25T11:57:09.263Z,3.60
2017-08-25T11:59:35.699Z,4.77
2017-08-25T12:02:02.131Z,4.00
2017-08-25T12:04:28.592Z,4.07
2017-08-25T12:06:55.048Z,3.50
2017-08-25T12:09:21.508Z,3.90
2017-08-25T12:11:47.953Z,4.20
2017-08-25T12:14:14.424Z,4.03
2017-08-25T12:16:40.915Z,3.70
2017-08-25T12:19:07.372Z,4.10
2017-08-25T12:21:33.836Z,4.03
2017-08-25T12:24:00.299Z,3.50
2017-08-25T12:26:26.756Z,6.10
2017-08-25T12:28:53.203Z,3.87
2017-08-25T12:31:19.628Z,4.57
2017-08-25T12:33:46.096Z,4.13
2017-08-25T12:36:12.557Z,4.60
2017-08-25T12:38:39.060Z,4.30
2017-08-25T12:41:06.291Z,4.23
2017-08-25T12:43:32.740Z,3.87
2017-08-25T12:45:59.213Z,3.47
2017-08-25T12:48:25.674Z,4.03
2017-08-25T12:50:52.149Z,4.13
2017-08-25T12:53:18.598Z,3.50
2017-08-25T12:55:45.058Z,3.50
2017-08-25T12:58:11.496Z,4.20
2017-08-25T13:00:38.322Z,3.80
2017-08-25T13:03:04.755Z,3.80
2017-08-25T13:05:31.225Z,3.80
2017-08-25T13:07:57.687Z,3.80
2017-08-25T13:10:24.121Z,4.17
2017-08-25T13:12:51.304Z,3.70
2017-08-25T13:15:17.745Z,3.90
2017-08-25T13:17:44.197Z,3.73
2017-08-25T13:20:10.690Z,3.07
2017-08-25T13:22:37.907Z,3.40
2017-08-25T13:25:04.359Z,4.33
2017-08-25T13:27:30.835Z,3.67
2017-08-25T13:29:57.326Z,3.93
2017-08-25T13:32:23.771Z,4.13
2017-08-25T13:34:50.269Z,4.03
2017-08-25T13:37:16.816Z,4.23
2017-08-25T13:39:43.285Z,3.70
2017-08-25T13:42:09.763Z,3.50
2017-08-25T13:44:36.275Z,3.97
2017-08-25T13:47:04.449Z,3.67
2017-08-25T13:49:30.958Z,3.97
2017-08-25T13:51:57.465Z,4.83
2017-08-25T13:54:23.953Z,3.73
2017-08-25T13:56:50.419Z,3.53
2017-08-25T13:59:16.900Z,3.97
2017-08-25T14:01:43.423Z,4.20
2017-08-25T14:04:09.897Z,4.00
2017-08-25T14:06:36.359Z,4.20
2017-08-25T14:09:02.918Z,4.07
2017-08-25T14:11:29.396Z,3.80
2017-08-25T14:13:55.868Z,4.73
2017-08-25T14:16:22.338Z,3.90
2017-08-25T14:18:48.865Z,4.10
2017-08-25T14:21:15.325Z,4.30
2017-08-25T14:23:41.789Z,3.60
2017-08-25T14:26:08.255Z,3.03
2017-08-25T14:28:34.741Z,3.97
2017-08-25T14:31:01.304Z,3.40
2017-08-25T14:33:27.740Z,3.53
2017-08-25T14:35:54.171Z,3.47
2017-08-25T14:38:20.659Z,3.27
2017-08-25T14:40:47.129Z,3.67
2017-08-25T14:43:13.569Z,3.53
2017-08-25T14:45:40.033Z,3.77
2017-08-25T14:48:06.501Z,3.90
2017-08-25T14:50:32.960Z,3.43
2017-08-25T14:52:59.388Z,4.33
2017-08-25T14:55:25.844Z,3.63
2017-08-25T14:57:52.323Z,4.10
2017-08-25T15:00:18.845Z,3.50
2017-08-25T15:02:45.304Z,5.73
2017-08-25T15:05:12.527Z,3.10
2017-08-25T15:07:39.005Z,3.10
2017-08-25T15:10:05.527Z,3.63
2017-08-25T15:12:32.007Z,3.37
2017-08-25T15:14:58.494Z,3.53
2017-08-25T15:17:24.997Z,3.47
2017-08-25T15:19:51.486Z,3.40
2017-08-25T15:22:19.996Z,3.10
2017-08-25T15:24:46.459Z,3.07
2017-08-25T15:27:12.909Z,2.87
2017-08-25T15:29:39.359Z,3.47
2017-08-25T15:32:05.832Z,2.80
2017-08-25T15:34:32.305Z,3.33
2017-08-25T15:36:58.753Z,3.17
2017-08-25T15:39:25.219Z,2.83
2017-08-25T15:41:51.663Z,2.50
2017-08-25T15:44:18.124Z,3.20
2017-08-25T15:46:44.583Z,3.07
2017-08-25T15:49:11.051Z,2.93
2017-08-25T15:51:37.498Z,2.63
2017-08-25T15:54:03.949Z,2.70
2017-08-25T15:56:30.410Z,2.83
2017-08-25T15:58:56.898Z,2.40
2017-08-25T16:01:23.340Z,2.83
2017-08-25T16:03:49.801Z,2.63
2017-08-25T16:06:16.261Z,3.17
2017-08-25T16:08:42.734Z,2.90
2017-08-25T16:11:09.194Z,3.20
2017-08-25T16:13:35.640Z,2.70
2017-08-25T16:16:02.085Z,2.77
2017-08-25T16:18:28.540Z,2.50
2017-08-25T16:20:54.993Z,3.23
2017-08-25T16:23:21.456Z,2.80
2017-08-25T16:25:47.929Z,3.37
2017-08-25T16:28:14.392Z,3.57
2017-08-25T16:30:40.849Z,3.13
2017-08-25T16:33:07.309Z,2.97
2017-08-25T16:35:33.764Z,2.77
2017-08-25T16:38:00.211Z,2.80
2017-08-25T16:40:26.845Z,3.03
2017-08-25T16:42:53.301Z,3.00
2017-08-25T16:45:19.732Z,3.70
2017-08-25T16:47:46.188Z,3.03
2017-08-25T16:50:12.640Z,2.60
2017-08-25T16:52:39.120Z,3.10
2017-08-25T16:55:05.567Z,3.10
2017-08-25T16:57:32.020Z,2.87
2017-08-25T16:59:58.445Z,3.20
2017-08-25T17:02:24.929Z,3.07
2017-08-25T17:04:51.422Z,2.90
2017-08-25T17:07:17.872Z,3.17
2017-08-25T17:09:44.375Z,3.20
2017-08-25T17:12:10.857Z,2.90
2017-08-25T17:14:37.357Z,3.23
2017-08-25T17:17:04.067Z,2.90
2017-08-25T17:19:30.500Z,3.23
2017-08-25T17:21:56.939Z,3.87
2017-08-25T17:24:23.368Z,3.40
2017-08-25T17:26:49.844Z,3.50
2017-08-25T17:29:16.305Z,3.10
2017-08-25T17:31:42.776Z,3.90
2017-08-25T17:34:09.254Z,3.30
2017-08-25T17:36:35.714Z,3.40
2017-08-25T17:39:02.197Z,3.70
2017-08-25T17:41:28.635Z,3.57
2017-08-25T17:43:55.104Z,7.30
2017-08-25T17:46:21.559Z,23.17
2017-08-25T17:48:47.992Z,5.50
2017-08-25T17:51:14.449Z,10.10
2017-08-25T17:53:40.917Z,9.80
2017-08-25T17:56:07.411Z,4.00
2017-08-25T17:58:33.840Z,24.37
2017-08-25T18:01:00.309Z,43.30
2017-08-25T18:03:26.788Z,24.77
2017-08-25T18:05:53.224Z,18.37
2017-08-25T18:08:20.435Z,13.10
2017-08-25T18:10:46.875Z,9.33
2017-08-25T18:13:13.319Z,9.47
2017-08-25T18:15:39.905Z,27.00
2017-08-25T18:18:06.338Z,20.50
2017-08-25T18:20:32.794Z,14.50
2017-08-25T18:22:59.263Z,11.10
2017-08-25T18:25:25.688Z,6.80
2017-08-25T18:27:52.131Z,5.50
2017-08-25T18:30:18.571Z,9.93
2017-08-25T18:32:45.016Z,10.97
2017-08-25T18:35:12.183Z,7.03
2017-08-25T18:37:38.640Z,6.93
2017-08-25T18:40:05.091Z,7.13
2017-08-25T18:42:31.519Z,5.93
2017-08-25T18:44:57.968Z,8.07
2017-08-25T18:47:24.442Z,17.83
2017-08-25T18:49:50.889Z,12.00
2017-08-25T18:52:17.354Z,14.30
2017-08-25T18:54:43.819Z,10.03
2017-08-25T18:57:10.270Z,6.77
2017-08-25T18:59:36.714Z,5.90
2017-08-25T19:02:03.147Z,6.77
2017-08-25T19:04:29.607Z,5.67
2017-08-25T19:06:56.074Z,4.80
2017-08-25T19:09:22.531Z,4.37
2017-08-25T19:11:48.994Z,3.83
2017-08-25T19:14:15.459Z,5.00
2017-08-25T19:16:41.937Z,5.67
2017-08-25T19:19:08.434Z,6.80
2017-08-25T19:21:34.891Z,5.77
2017-08-25T19:24:01.354Z,5.83
2017-08-25T19:26:33.913Z,6.50
2017-08-25T19:29:01.095Z,6.60
2017-08-25T19:31:27.528Z,6.00
2017-08-25T19:33:54.002Z,6.80
2017-08-25T19:36:20.521Z,6.10
2017-08-25T19:38:46.974Z,6.23
2017-08-25T19:41:13.431Z,6.07
2017-08-25T19:43:39.920Z,5.80
2017-08-25T19:46:06.429Z,6.40
2017-08-25T19:48:32.899Z,6.60
2017-08-25T19:50:59.377Z,6.63
2017-08-25T19:53:25.891Z,5.97
2017-08-25T19:55:52.394Z,6.70
2017-08-25T19:58:18.873Z,6.90
2017-08-25T20:00:45.337Z,6.57
2017-08-25T20:03:11.808Z,7.60
2017-08-25T20:05:38.288Z,7.30
2017-08-25T20:08:04.771Z,7.00
2017-08-25T20:10:31.257Z,6.00
2017-08-25T20:12:57.796Z,5.73
2017-08-25T20:15:24.259Z,5.87
2017-08-25T20:17:50.708Z,5.47
2017-08-25T20:20:17.192Z,5.60
2017-08-25T20:22:43.694Z,6.27
2017-08-25T20:25:10.226Z,6.50
2017-08-25T20:27:36.749Z,6.30
2017-08-25T20:30:03.264Z,6.33
2017-08-25T20:32:29.712Z,5.77
2017-08-25T20:34:56.232Z,6.40
2017-08-25T20:37:22.748Z,6.37
2017-08-25T20:39:49.195Z,7.13
2017-08-25T20:42:15.638Z,6.73
2017-08-25T20:44:42.473Z,6.67
2017-08-25T20:47:08.984Z,7.10
2017-08-25T20:49:35.452Z,7.50
2017-08-25T20:52:01.914Z,6.03
2017-08-25T20:54:28.392Z,7.07
2017-08-25T20:56:55.600Z,6.80
2017-08-25T20:59:22.038Z,6.87
2017-08-25T21:01:48.482Z,6.90
2017-08-25T21:04:14.902Z,7.17
2017-08-25T21:06:41.365Z,6.70
2017-08-25T21:09:07.885Z,6.17
2017-08-25T21:11:34.371Z,7.67
2017-08-25T21:14:00.857Z,7.57
2017-08-25T21:16:27.346Z,6.60
2017-08-25T21:18:53.840Z,8.30
2017-08-25T21:21:20.309Z,7.10
2017-08-25T21:23:46.756Z,7.13
2017-08-25T21:26:13.215Z,7.50
2017-08-25T21:28:39.689Z,7.40
2017-08-25T21:31:06.142Z,6.77
2017-08-25T21:33:32.644Z,7.70
2017-08-25T21:35:59.107Z,7.83
2017-08-25T21:38:25.540Z,8.50
2017-08-25T21:40:51.959Z,8.50
2017-08-25T21:43:18.401Z,7.50
2017-08-25T21:45:44.869Z,7.27
2017-08-25T21:48:11.360Z,8.17
2017-08-25T21:50:37.833Z,7.00
2017-08-25T21:53:04.278Z,7.73
2017-08-25T21:55:30.752Z,7.00
2017-08-25T21:57:57.172Z,7.60
2017-08-25T22:00:23.647Z,7.70
2017-08-25T22:02:50.095Z,7.30
2017-08-25T22:05:16.559Z,6.83
2017-08-25T22:07:43.014Z,7.57
2017-08-25T22:10:09.482Z,6.33
2017-08-25T22:12:35.928Z,5.70
2017-08-25T22:15:02.391Z,6.33
2017-08-25T22:17:29.811Z,6.80
2017-08-25T22:19:56.245Z,7.40
2017-08-25T22:22:22.722Z,6.37
2017-08-25T22:24:49.197Z,6.50
2017-08-25T22:27:15.679Z,6.50
2017-08-25T22:29:42.168Z,7.00
2017-08-25T22:32:08.620Z,7.43
2017-08-25T22:34:35.063Z,5.93
2017-08-25T22:37:01.523Z,7.00
2017-08-25T22:39:28.028Z,6.23
2017-08-25T22:41:54.829Z,6.90
2017-08-25T22:44:21.283Z,6.23
2017-08-25T22:46:47.803Z,6.53
2017-08-25T22:49:14.247Z,7.40
2017-08-25T22:51:40.715Z,7.53
2017-08-25T22:54:07.139Z,6.20
2017-08-25T22:56:33.574Z,7.40
2017-08-25T22:59:00.090Z,6.60
2017-08-25T23:01:26.533Z,5.83
2017-08-25T23:03:52.961Z,6.60
2017-08-25T23:06:19.441Z,6.27
2017-08-25T23:08:45.875Z,6.60
2017-08-25T23:11:12.336Z,7.07
2017-08-25T23:13:38.783Z,6.80
2017-08-25T23:16:05.258Z,6.20
2017-08-25T23:18:31.723Z,7.97
2017-08-25T23:20:58.168Z,6.00
2017-08-25T23:23:25.388Z,7.10
2017-08-25T23:25:51.840Z,6.20
2017-08-25T23:28:18.287Z,6.23
2017-08-25T23:30:44.742Z,6.03
2017-08-25T23:33:11.164Z,5.43
2017-08-25T23:35:37.609Z,6.80
2017-08-25T23:38:04.076Z,6.07
2017-08-25T23:40:30.540Z,6.70
2017-08-25T23:42:56.975Z,6.13
2017-08-25T23:45:23.429Z,6.80
2017-08-25T23:47:49.887Z,5.93
2017-08-25T23:50:16.358Z,6.73
2017-08-25T23:52:42.805Z,7.23
2017-08-25T23:55:09.303Z,6.23
2017-08-25T23:57:35.759Z,6.20
